»·PEaware :: N9622C S42-KABQ

N9622C :: S42-KABQ

FLIGHT INFORMATION

Flight Status: Arrived
Operator: Privately registered:
United States
More flights under this callsign
Pilot: Michael D. (17574)
Aircraft: Unknown
(B429)
More flights by this aircraft type
Origin: S42 Springer Mun
United States
Destination: KABQ Albuquerque Intl Sunport
United States
More flights between these airports :: More routes between these airports
Route: FTI V611 NELGE
File this flight plan on PilotEdge
Remarks:
Altitude:
(Current/Filed)
10,500ft
Speed:
(Current/Filed)
140kts
Departed: 13-Apr-19 01:36 PM
Arrived: 13-Apr-19 02:37 PM
Distance/Time
Traveled:
124nm/1:01
Distance/Time
To Go:
Arrived

Flight Plot

Page will automatically refresh every two minutes.


Map Options




Map Legend


Flown Route
Filed Route
Departure Airport
Arrival Airport
Navaid (VOR, NDB)
Fix

Horizontal Profiles

Position Reports

Time Latitude Longitude Heading Altitude Ground
Speed
13-Apr-19 13:28 36.336124 -104.615030 291 5896ft 0kts
13-Apr-19 13:29 36.336124 -104.615030 291 5896ft 0kts
13-Apr-19 13:30 36.336124 -104.615030 291 5896ft 0kts
13-Apr-19 13:31 36.336124 -104.615030 291 5896ft 0kts
13-Apr-19 13:32 36.336124 -104.615030 290 5896ft 0kts
13-Apr-19 13:33 36.336125 -104.615030 291 5896ft 0kts
13-Apr-19 13:34 36.336080 -104.615324 216 5904ft 5kts
13-Apr-19 13:35 36.318027 -104.641577 224 6148ft 151kts
13-Apr-19 13:36 36.290751 -104.680993 226 6630ft 150kts
13-Apr-19 13:37 36.262328 -104.719405 224 7219ft 151kts
13-Apr-19 13:38 36.232907 -104.756218 223 7803ft 148kts
13-Apr-19 13:39 36.202602 -104.791966 223 8186ft 151kts
13-Apr-19 13:40 36.171625 -104.828183 223 8459ft 153kts
13-Apr-19 13:41 36.140614 -104.864285 223 8711ft 152kts
13-Apr-19 13:42 36.112658 -104.899510 228 9499ft 139kts
13-Apr-19 13:43 36.085821 -104.935416 227 10165ft 142kts
13-Apr-19 13:44 36.057282 -104.969518 223 10784ft 144kts
13-Apr-19 13:45 36.025768 -105.002013 219 10576ft 150kts
13-Apr-19 13:46 35.988248 -105.025705 199 10506ft 151kts
13-Apr-19 13:47 35.947775 -105.040493 196 10495ft 151kts
13-Apr-19 13:48 35.906686 -105.054275 195 10510ft 152kts
13-Apr-19 13:49 35.865318 -105.067756 194 10522ft 151kts
13-Apr-19 13:50 35.824331 -105.080875 195 10513ft 152kts
13-Apr-19 13:51 35.783351 -105.094125 195 10505ft 152kts
13-Apr-19 13:52 35.746367 -105.106071 196 10605ft 124kts
13-Apr-19 13:53 35.708668 -105.118796 195 10577ft 147kts
13-Apr-19 13:54 35.668643 -105.131950 195 10589ft 149kts
13-Apr-19 13:55 35.634939 -105.153159 261 10593ft 141kts
13-Apr-19 13:56 35.635694 -105.201098 275 10563ft 138kts
13-Apr-19 13:57 35.638281 -105.248907 276 10525ft 138kts
13-Apr-19 13:58 35.637604 -105.297137 261 10543ft 142kts
13-Apr-19 13:59 35.631480 -105.345757 261 10539ft 144kts
13-Apr-19 14:00 35.625430 -105.394213 261 10599ft 143kts
13-Apr-19 14:01 35.619299 -105.444922 261 10618ft 150kts
13-Apr-19 14:02 35.614257 -105.492956 258 10639ft 139kts
13-Apr-19 14:03 35.608393 -105.539867 258 10620ft 139kts
13-Apr-19 14:04 35.602550 -105.586360 258 10454ft 138kts
13-Apr-19 14:05 35.596812 -105.632826 258 10531ft 138kts
13-Apr-19 14:06 35.590903 -105.679538 257 10747ft 137kts
13-Apr-19 14:07 35.584793 -105.725589 258 10536ft 138kts
13-Apr-19 14:08 35.579130 -105.772301 258 10321ft 137kts
13-Apr-19 14:09 35.573376 -105.818140 258 10364ft 134kts
13-Apr-19 14:10 35.567332 -105.862842 259 10423ft 133kts
13-Apr-19 14:11 35.561139 -105.907858 260 10494ft 134kts
13-Apr-19 14:12 35.554865 -105.952985 261 10567ft 134kts
13-Apr-19 14:13 35.548757 -105.998413 261 10581ft 134kts
13-Apr-19 14:14 35.542453 -106.043495 260 10317ft 132kts
13-Apr-19 14:15 35.531176 -106.086905 247 9719ft 135kts
13-Apr-19 14:16 35.515689 -106.127784 247 9356ft 130kts
13-Apr-19 14:17 35.500544 -106.168013 247 8931ft 128kts
13-Apr-19 14:18 35.485542 -106.207376 247 8556ft 127kts
13-Apr-19 14:19 35.470715 -106.247984 247 8496ft 137kts
13-Apr-19 14:20 35.454228 -106.289898 246 8505ft 128kts
13-Apr-19 14:21 35.439082 -106.328876 248 8500ft 126kts
13-Apr-19 14:22 35.424035 -106.367876 247 8504ft 125kts
13-Apr-19 14:23 35.408986 -106.406880 248 8516ft 125kts
13-Apr-19 14:24 35.393959 -106.445842 248 8519ft 126kts
13-Apr-19 14:25 35.378697 -106.485585 248 8528ft 129kts
13-Apr-19 14:26 35.363041 -106.525975 248 8531ft 130kts
13-Apr-19 14:27 35.327656 -106.542713 193 8485ft 140kts
13-Apr-19 14:28 35.288876 -106.551223 194 8508ft 141kts
13-Apr-19 14:29 35.249963 -106.559693 194 8540ft 142kts
13-Apr-19 14:30 35.211087 -106.568927 193 8205ft 143kts
13-Apr-19 14:31 35.172287 -106.577836 193 7550ft 142kts
13-Apr-19 14:32 35.136447 -106.585877 193 7251ft 117kts
13-Apr-19 14:33 35.104644 -106.593137 193 6737ft 116kts
13-Apr-19 14:34 35.072269 -106.604404 200 6163ft 125kts
13-Apr-19 14:35 35.044185 -106.616394 199 5527ft 66kts
13-Apr-19 14:36 35.039224 -106.619320 180 5321ft 0kts
13-Apr-19 14:37 35.039224 -106.619320 181 5320ft 0kts
13-Apr-19 14:38 35.039224 -106.619320 181 5320ft 0kts
13-Apr-19 14:39 35.039224 -106.619320 181 5320ft 0kts

Navigation Log

Ident Type
Flight plan parsing failed, navigation log unavailable